createdAt,value
2022-11-28T00:01:58.977Z,40.13
2022-11-28T00:05:01.784Z,47.17
2022-11-28T00:08:04.498Z,44.20
2022-11-28T00:11:10.270Z,42.67
2022-11-28T00:14:13.500Z,41.35
2022-11-28T00:17:15.922Z,45.23
2022-11-28T00:20:18.384Z,37.88
2022-11-28T00:23:20.793Z,41.38
2022-11-28T00:26:29.081Z,41.72
2022-11-28T00:29:31.808Z,35.87
2022-11-28T00:32:34.217Z,36.47
2022-11-28T00:35:36.733Z,44.20
2022-11-28T00:38:40.007Z,44.10
2022-11-28T00:41:43.724Z,42.13
2022-11-28T00:44:46.474Z,37.90
2022-11-28T00:47:49.266Z,45.40
2022-11-28T00:50:52.210Z,40.33
2022-11-28T00:53:57.457Z,33.50
2022-11-28T00:56:59.898Z,40.83
2022-11-28T01:00:02.454Z,47.30
2022-11-28T01:03:05.757Z,42.97
2022-11-28T01:06:10.143Z,39.40
2022-11-28T01:09:19.092Z,43.80
2022-11-28T01:12:21.892Z,43.90
2022-11-28T01:15:24.528Z,45.47
2022-11-28T01:18:27.145Z,39.65
2022-11-28T01:21:29.551Z,42.38
2022-11-28T01:24:33.081Z,41.33
2022-11-28T01:27:35.819Z,38.35
2022-11-28T01:30:39.854Z,34.28
2022-11-28T01:33:42.725Z,34.63
2022-11-28T01:36:45.288Z,36.13
2022-11-28T01:39:48.771Z,42.92
2022-11-28T01:42:51.154Z,38.97
2022-11-28T01:45:54.306Z,39.65
2022-11-28T01:49:11.661Z,35.47
2022-11-28T01:52:17.342Z,36.45
2022-11-28T01:55:24.917Z,28.38
2022-11-28T01:58:29.133Z,28.37
2022-11-28T02:01:31.998Z,25.50
2022-11-28T02:04:34.918Z,27.13
2022-11-28T02:07:38.395Z,31.45
2022-11-28T02:10:49.613Z,27.13
2022-11-28T02:14:19.862Z,31.20
2022-11-28T02:18:00.485Z,31.60
2022-11-28T02:21:10.222Z,42.50
2022-11-28T02:24:39.876Z,31.97
2022-11-28T02:28:18.073Z,61.77
2022-11-28T02:31:38.726Z,82.70
2022-11-28T02:35:03.410Z,84.75
2022-11-28T02:38:30.968Z,74.93
2022-11-28T02:42:14.590Z,53.90
2022-11-28T02:45:29.947Z,47.63
2022-11-28T02:48:46.660Z,45.17
2022-11-28T02:52:00.767Z,37.40
2022-11-28T02:55:05.381Z,30.17
2022-11-28T02:58:10.900Z,24.83
2022-11-28T03:01:21.555Z,23.15
2022-11-28T03:04:40.484Z,23.53
2022-11-28T03:08:20.913Z,24.97
2022-11-28T03:11:36.982Z,27.98
2022-11-28T03:14:57.728Z,30.60
2022-11-28T03:18:37.295Z,29.20
2022-11-28T03:22:09.220Z,25.90
2022-11-28T03:25:17.693Z,30.83
2022-11-28T03:28:37.115Z,29.05
2022-11-28T03:31:50.099Z,33.07
2022-11-28T03:34:59.418Z,31.20
2022-11-28T03:38:07.602Z,30.40
2022-11-28T03:41:16.756Z,29.25
2022-11-28T03:44:26.190Z,30.08
2022-11-28T03:47:34.532Z,27.80
2022-11-28T03:50:45.711Z,32.90
2022-11-28T03:54:01.204Z,31.27
2022-11-28T03:57:12.867Z,34.30
2022-11-28T04:00:16.052Z,28.40
2022-11-28T04:03:24.992Z,30.45
2022-11-28T04:06:44.664Z,31.52
2022-11-28T04:09:58.889Z,80.07
2022-11-28T04:13:26.067Z,74.03
2022-11-28T04:16:38.219Z,67.20
2022-11-28T04:19:50.816Z,49.58
2022-11-28T04:22:58.933Z,52.57
2022-11-28T04:26:14.848Z,32.25
2022-11-28T04:29:20.995Z,38.15
2022-11-28T04:32:26.527Z,36.35
2022-11-28T04:35:33.867Z,33.90
2022-11-28T04:38:39.177Z,39.35
2022-11-28T04:42:03.025Z,31.83
2022-11-28T04:45:11.780Z,35.80
2022-11-28T04:48:14.330Z,33.67
2022-11-28T04:51:23.142Z,35.42
2022-11-28T04:54:35.382Z,41.22
2022-11-28T04:57:39.554Z,41.88
2022-11-28T05:00:44.342Z,46.65
2022-11-28T05:03:46.860Z,48.90
2022-11-28T05:06:49.392Z,49.23
2022-11-28T05:09:52.086Z,52.05
2022-11-28T05:12:54.552Z,52.63
2022-11-28T05:16:00.679Z,42.15
2022-11-28T05:19:03.164Z,46.73
2022-11-28T05:22:05.668Z,37.15
2022-11-28T05:25:08.809Z,41.63
2022-11-28T05:28:11.203Z,36.57
2022-11-28T05:31:14.904Z,38.08
2022-11-28T05:34:17.436Z,40.85
2022-11-28T05:37:20.222Z,42.97
2022-11-28T05:40:22.742Z,37.93
2022-11-28T05:43:26.214Z,47.17
2022-11-28T05:46:30.079Z,43.33
2022-11-28T05:49:32.613Z,46.10
2022-11-28T05:52:35.040Z,45.83
2022-11-28T05:55:39.315Z,49.42
2022-11-28T05:58:42.717Z,64.35
2022-11-28T06:01:45.412Z,62.63
2022-11-28T06:04:47.947Z,60.22
2022-11-28T06:07:50.485Z,55.55
2022-11-28T06:10:59.936Z,60.67
2022-11-28T06:14:03.397Z,63.47
2022-11-28T06:17:05.885Z,71.90
2022-11-28T06:20:08.870Z,73.57
2022-11-28T06:23:11.462Z,81.28
2022-11-28T06:26:16.838Z,90.00
2022-11-28T06:29:19.482Z,79.00
2022-11-28T06:32:22.351Z,81.03
2022-11-28T06:35:25.048Z,90.55
2022-11-28T06:38:28.426Z,85.22
2022-11-28T06:41:31.027Z,82.63
2022-11-28T06:44:33.703Z,89.97
2022-11-28T06:47:36.292Z,79.53
2022-11-28T06:50:38.875Z,70.17
2022-11-28T06:53:41.691Z,74.30
2022-11-28T06:56:44.218Z,61.28
2022-11-28T06:59:48.655Z,75.43
2022-11-28T07:02:51.424Z,89.57
2022-11-28T07:05:54.289Z,67.40
2022-11-28T07:08:58.521Z,65.53
2022-11-28T07:12:00.996Z,66.03
2022-11-28T07:15:07.377Z,71.75
2022-11-28T07:18:10.043Z,64.45
2022-11-28T07:21:15.108Z,65.05
2022-11-28T07:24:18.984Z,64.53
2022-11-28T07:27:21.570Z,46.25
2022-11-28T07:30:27.895Z,22.42
2022-11-28T07:33:31.332Z,19.80
2022-11-28T07:36:33.779Z,18.35
2022-11-28T07:39:36.302Z,17.35
2022-11-28T07:42:38.883Z,21.23
2022-11-28T07:45:59.328Z,20.23
2022-11-28T07:49:04.423Z,14.50
2022-11-28T07:52:07.143Z,18.23
2022-11-28T07:55:12.456Z,15.23
2022-11-28T07:58:14.927Z,15.88
2022-11-28T08:01:25.426Z,19.48
2022-11-28T08:04:28.098Z,16.90
2022-11-28T08:07:31.077Z,18.53
2022-11-28T08:10:34.288Z,20.88
2022-11-28T08:13:38.465Z,18.10
2022-11-28T08:16:45.147Z,23.77
2022-11-28T08:19:48.260Z,17.07
2022-11-28T08:22:50.769Z,15.77
2022-11-28T08:25:53.370Z,14.57
2022-11-28T08:28:56.170Z,17.40
2022-11-28T08:31:59.336Z,14.00
2022-11-28T08:35:02.146Z,15.68
2022-11-28T08:38:04.768Z,17.50
2022-11-28T08:41:10.976Z,17.77
2022-11-28T08:44:13.671Z,30.13
2022-11-28T08:47:16.228Z,30.15
2022-11-28T08:50:19.295Z,33.85
2022-11-28T08:53:21.972Z,28.60
2022-11-28T08:56:25.611Z,29.80
2022-11-28T08:59:28.415Z,21.10
2022-11-28T09:02:30.964Z,18.73
2022-11-28T09:05:33.935Z,11.13
2022-11-28T09:08:36.645Z,9.37
2022-11-28T09:11:39.563Z,11.63
2022-11-28T09:14:42.432Z,20.48
2022-11-28T09:17:47.949Z,17.23
2022-11-28T09:20:50.505Z,12.50
2022-11-28T09:23:56.149Z,14.38
2022-11-28T09:26:58.627Z,14.73
2022-11-28T09:30:01.273Z,10.10
2022-11-28T09:33:04.928Z,13.67
2022-11-28T09:36:10.205Z,13.50
2022-11-28T09:39:12.856Z,11.52
2022-11-28T09:42:30.571Z,13.65
2022-11-28T09:45:33.647Z,20.07
2022-11-28T09:48:49.675Z,14.40
2022-11-28T09:52:02.820Z,15.50
2022-11-28T09:55:36.519Z,13.87
2022-11-28T09:58:50.103Z,15.80
2022-11-28T10:02:09.757Z,15.15
2022-11-28T10:05:26.168Z,11.43
2022-11-28T10:08:52.312Z,15.65
2022-11-28T10:12:23.633Z,18.03
2022-11-28T10:15:37.997Z,15.23
2022-11-28T10:18:52.478Z,18.67
2022-11-28T10:22:00.038Z,15.23
2022-11-28T10:25:11.148Z,14.30
2022-11-28T10:28:21.061Z,13.85
2022-11-28T10:31:42.929Z,15.10
2022-11-28T10:35:37.398Z,14.32
2022-11-28T10:38:40.044Z,12.40
2022-11-28T10:42:32.647Z,14.18
2022-11-28T10:45:56.799Z,13.85
2022-11-28T10:49:02.360Z,11.30
2022-11-28T10:52:53.159Z,14.67
2022-11-28T10:56:01.763Z,21.42
2022-11-28T10:59:33.310Z,12.05
2022-11-28T11:02:50.900Z,13.73
2022-11-28T11:05:53.456Z,13.33
2022-11-28T11:08:56.056Z,12.45
2022-11-28T11:12:02.721Z,14.57
2022-11-28T11:15:32.148Z,17.45
2022-11-28T11:18:55.489Z,20.73
2022-11-28T11:22:04.428Z,21.13
2022-11-28T11:25:12.741Z,24.42
2022-11-28T11:29:00.177Z,16.90
2022-11-28T11:32:06.675Z,15.18
2022-11-28T11:35:17.702Z,17.07
2022-11-28T11:38:23.425Z,20.30
2022-11-28T11:41:30.754Z,18.50
2022-11-28T11:44:34.714Z,21.08
2022-11-28T11:47:44.130Z,20.98
2022-11-28T11:50:54.000Z,20.33
2022-11-28T11:54:20.961Z,18.98
2022-11-28T11:57:39.083Z,19.20
2022-11-28T12:00:51.349Z,19.27
2022-11-28T12:04:08.505Z,19.93
2022-11-28T12:07:46.256Z,24.50
2022-11-28T12:10:53.801Z,18.27
2022-11-28T12:14:03.383Z,24.88
2022-11-28T12:17:47.243Z,22.65
2022-11-28T12:21:11.385Z,20.00
2022-11-28T12:24:17.572Z,19.23
2022-11-28T12:27:40.250Z,22.27
2022-11-28T12:31:12.629Z,21.52
2022-11-28T12:34:34.101Z,22.45
2022-11-28T12:38:11.698Z,25.20
2022-11-28T12:41:42.577Z,26.60
2022-11-28T12:45:13.059Z,25.85
2022-11-28T12:48:53.567Z,25.92
2022-11-28T12:52:33.565Z,25.83
2022-11-28T12:55:51.337Z,25.57
2022-11-28T12:58:59.986Z,26.35
2022-11-28T13:02:25.617Z,31.52
2022-11-28T13:06:16.518Z,30.63
2022-11-28T13:09:48.651Z,28.90
2022-11-28T13:13:01.302Z,33.77
2022-11-28T13:16:25.102Z,24.08
2022-11-28T13:19:54.393Z,28.35
2022-11-28T13:23:16.478Z,35.08
2022-11-28T13:26:19.013Z,29.73
2022-11-28T13:29:45.506Z,28.48
2022-11-28T13:32:56.964Z,29.23
2022-11-28T13:36:00.794Z,32.22
2022-11-28T13:39:16.719Z,35.47
2022-11-28T13:43:02.341Z,45.07
2022-11-28T13:46:00.263Z,34.13
2022-11-28T13:49:15.483Z,32.92
2022-11-28T13:52:32.419Z,34.67
2022-11-28T13:55:39.484Z,31.03
2022-11-28T13:58:45.005Z,30.60
2022-11-28T14:01:58.192Z,30.73
2022-11-28T14:05:02.553Z,29.10
2022-11-28T14:08:07.200Z,41.50
2022-11-28T14:11:46.490Z,36.17
2022-11-28T14:15:02.884Z,43.80
2022-11-28T14:18:54.446Z,48.30
2022-11-28T14:22:21.884Z,49.00
2022-11-28T14:25:50.232Z,43.53
2022-11-28T14:28:55.092Z,41.90
2022-11-28T14:32:28.503Z,43.17
2022-11-28T14:35:54.512Z,45.17
2022-11-28T14:39:04.138Z,52.37
2022-11-28T14:42:08.172Z,57.22
2022-11-28T14:45:32.940Z,69.38
2022-11-28T14:48:42.123Z,75.78
2022-11-28T14:51:47.750Z,69.17
2022-11-28T14:54:53.071Z,76.22
2022-11-28T14:58:03.872Z,70.10
2022-11-28T15:01:13.600Z,65.95
2022-11-28T15:05:01.581Z,70.50
2022-11-28T15:08:29.628Z,72.40
2022-11-28T15:11:47.410Z,80.95
2022-11-28T15:14:55.918Z,79.03
2022-11-28T15:18:02.058Z,77.83
2022-11-28T15:21:11.916Z,76.28
2022-11-28T15:24:25.639Z,89.35
2022-11-28T15:27:28.673Z,96.10
2022-11-28T15:30:33.426Z,89.10
2022-11-28T15:33:36.051Z,101.50
2022-11-28T15:36:39.525Z,105.20
2022-11-28T15:39:45.497Z,111.70
2022-11-28T15:42:49.879Z,111.43
2022-11-28T15:45:58.593Z,103.03
2022-11-28T15:49:01.778Z,104.45
2022-11-28T15:52:05.412Z,92.80
2022-11-28T15:55:16.310Z,78.72
2022-11-28T15:58:21.570Z,83.05
2022-11-28T16:01:28.101Z,101.45
2022-11-28T16:04:31.247Z,106.67
2022-11-28T16:07:39.041Z,113.03
2022-11-28T16:10:44.495Z,138.00
2022-11-28T16:13:47.950Z,137.63
2022-11-28T16:16:50.822Z,131.30
2022-11-28T16:19:55.498Z,188.17
2022-11-28T16:23:02.561Z,205.18
2022-11-28T16:26:23.002Z,209.13
2022-11-28T16:29:34.654Z,156.13
2022-11-28T16:32:40.069Z,156.90
2022-11-28T16:35:42.666Z,159.77
2022-11-28T16:38:47.285Z,169.05
2022-11-28T16:41:52.099Z,147.97
2022-11-28T16:44:54.847Z,133.20
2022-11-28T16:48:09.970Z,160.18
2022-11-28T16:51:12.748Z,143.32
2022-11-28T16:54:29.318Z,140.23
2022-11-28T16:57:46.869Z,127.33
2022-11-28T17:01:01.818Z,131.65
2022-11-28T17:04:05.084Z,125.82
2022-11-28T17:07:14.085Z,156.40
2022-11-28T17:10:16.912Z,170.70
2022-11-28T17:13:19.482Z,129.98
2022-11-28T17:16:24.045Z,117.22
2022-11-28T17:19:27.136Z,98.93
2022-11-28T17:22:42.400Z,125.60
2022-11-28T17:25:45.182Z,105.93
2022-11-28T17:28:47.761Z,122.65
2022-11-28T17:31:50.376Z,111.68
2022-11-28T17:34:52.905Z,126.27
2022-11-28T17:37:55.491Z,134.68
2022-11-28T17:40:58.727Z,141.60
2022-11-28T17:44:01.317Z,154.30
2022-11-28T17:47:04.080Z,114.10
2022-11-28T17:50:07.459Z,120.95
2022-11-28T17:53:15.552Z,116.25
2022-11-28T17:56:18.789Z,105.93
2022-11-28T17:59:23.375Z,109.77
2022-11-28T18:02:26.001Z,118.60
2022-11-28T18:05:28.851Z,101.20
2022-11-28T18:08:31.909Z,105.33
2022-11-28T18:11:35.904Z,109.13
2022-11-28T18:14:39.876Z,149.88
2022-11-28T18:17:43.145Z,114.03
2022-11-28T18:20:46.103Z,103.23
2022-11-28T18:23:50.540Z,113.60
2022-11-28T18:26:53.731Z,128.68
2022-11-28T18:29:56.395Z,122.85
2022-11-28T18:32:59.026Z,114.23
2022-11-28T18:36:17.422Z,137.93
2022-11-28T18:39:20.153Z,158.13
2022-11-28T18:42:22.872Z,142.90
2022-11-28T18:45:25.792Z,133.33
2022-11-28T18:48:29.212Z,134.32
2022-11-28T18:51:34.147Z,120.03
2022-11-28T18:54:38.521Z,118.03
2022-11-28T18:57:41.511Z,125.83
2022-11-28T19:00:44.430Z,129.30
2022-11-28T19:03:52.431Z,121.82
2022-11-28T19:06:55.137Z,132.57
2022-11-28T19:09:59.397Z,123.43
2022-11-28T19:13:02.162Z,98.30
2022-11-28T19:16:13.705Z,109.35
2022-11-28T19:19:17.166Z,128.87
2022-11-28T19:22:21.669Z,134.55
2022-11-28T19:25:24.436Z,119.40
2022-11-28T19:28:26.922Z,131.38
2022-11-28T19:31:32.679Z,140.13
2022-11-28T19:34:35.241Z,132.20
2022-11-28T19:37:37.966Z,115.47
2022-11-28T19:40:40.732Z,107.90
2022-11-28T19:43:44.289Z,105.90
2022-11-28T19:46:47.901Z,117.55
2022-11-28T19:49:50.669Z,87.15
2022-11-28T19:52:54.985Z,102.13
2022-11-28T19:56:11.563Z,97.40
2022-11-28T19:59:15.401Z,100.07
2022-11-28T20:02:21.651Z,104.47
2022-11-28T20:05:24.388Z,102.70
2022-11-28T20:08:27.213Z,90.97
2022-11-28T20:11:32.765Z,85.90
2022-11-28T20:14:35.607Z,86.80
2022-11-28T20:17:40.197Z,82.23
2022-11-28T20:20:43.424Z,101.80
2022-11-28T20:23:48.943Z,90.97
2022-11-28T20:26:51.776Z,114.63
2022-11-28T20:29:56.315Z,113.73
2022-11-28T20:32:59.256Z,101.70
2022-11-28T20:36:11.168Z,93.82
2022-11-28T20:39:14.006Z,90.45
2022-11-28T20:42:17.692Z,86.73
2022-11-28T20:45:20.491Z,84.95
2022-11-28T20:48:23.175Z,88.57
2022-11-28T20:51:28.452Z,86.22
2022-11-28T20:54:31.167Z,84.20
2022-11-28T20:57:33.820Z,81.45
2022-11-28T21:00:36.544Z,87.47
2022-11-28T21:03:39.277Z,92.80
2022-11-28T21:06:42.600Z,78.80
2022-11-28T21:09:45.363Z,78.93
2022-11-28T21:12:47.960Z,80.78
2022-11-28T21:15:51.104Z,96.37
2022-11-28T21:18:55.105Z,83.97
2022-11-28T21:21:57.537Z,72.00
2022-11-28T21:25:00.023Z,69.53
2022-11-28T21:28:02.704Z,78.60
2022-11-28T21:31:11.803Z,75.05
2022-11-28T21:34:16.676Z,80.05
2022-11-28T21:37:19.586Z,95.90
2022-11-28T21:40:22.068Z,105.50
2022-11-28T21:43:25.267Z,96.80
2022-11-28T21:46:28.620Z,109.88
2022-11-28T21:49:34.033Z,106.17
2022-11-28T21:52:37.184Z,95.88
2022-11-28T21:55:39.653Z,100.40
2022-11-28T21:58:42.177Z,90.95
2022-11-28T22:01:44.712Z,103.80
2022-11-28T22:04:47.401Z,102.15
2022-11-28T22:07:50.331Z,110.45
2022-11-28T22:10:52.834Z,95.60
2022-11-28T22:13:55.295Z,101.97
2022-11-28T22:16:58.841Z,86.53
2022-11-28T22:20:01.405Z,82.95
2022-11-28T22:23:04.032Z,86.50
2022-11-28T22:26:08.103Z,83.43
2022-11-28T22:29:10.650Z,85.32
2022-11-28T22:32:13.344Z,82.00
2022-11-28T22:35:15.907Z,83.90
2022-11-28T22:38:18.531Z,84.88
2022-11-28T22:41:28.417Z,98.82
2022-11-28T22:44:33.815Z,82.05
2022-11-28T22:47:37.128Z,60.23
2022-11-28T22:50:40.570Z,59.08
2022-11-28T22:53:43.372Z,64.00
2022-11-28T22:56:45.883Z,54.53
2022-11-28T22:59:48.789Z,52.75
2022-11-28T23:02:51.536Z,59.28
2022-11-28T23:05:54.347Z,48.75
2022-11-28T23:08:58.775Z,63.77
2022-11-28T23:12:02.378Z,46.72
2022-11-28T23:15:05.384Z,53.53
2022-11-28T23:18:07.862Z,57.72
2022-11-28T23:21:11.584Z,48.75
2022-11-28T23:24:16.804Z,52.55
2022-11-28T23:27:20.350Z,51.58
2022-11-28T23:30:23.864Z,54.43
2022-11-28T23:33:26.274Z,53.80
2022-11-28T23:36:33.658Z,53.22
2022-11-28T23:39:38.234Z,59.95
2022-11-28T23:42:42.442Z,55.50
2022-11-28T23:45:44.833Z,58.47
2022-11-28T23:48:47.932Z,63.03
2022-11-28T23:51:50.336Z,56.97
2022-11-28T23:54:52.709Z,57.03
2022-11-28T23:57:55.280Z,55.50
